sensor_id;sensor_type;location;lat;lon;timestamp;temperature;humidity
7411;DHT22;3747;48.628;9.058;2023-01-26T00:00:52;-0.80;99.90
7411;DHT22;3747;48.628;9.058;2023-01-26T00:03:19;-0.80;99.90
7411;DHT22;3747;48.628;9.058;2023-01-26T00:05:45;-0.80;99.90
7411;DHT22;3747;48.628;9.058;2023-01-26T00:08:12;-0.80;99.90
7411;DHT22;3747;48.628;9.058;2023-01-26T00:10:40;-0.80;99.90
7411;DHT22;3747;48.628;9.058;2023-01-26T00:13:16;-0.80;99.90
7411;DHT22;3747;48.628;9.058;2023-01-26T00:15:44;-0.80;99.90
7411;DHT22;3747;48.628;9.058;2023-01-26T00:18:11;-0.80;99.90
7411;DHT22;3747;48.628;9.058;2023-01-26T00:20:38;-0.70;99.90
7411;DHT22;3747;48.628;9.058;2023-01-26T00:23:04;-0.80;99.90
7411;DHT22;3747;48.628;9.058;2023-01-26T00:25:31;-0.80;99.90
7411;DHT22;3747;48.628;9.058;2023-01-26T00:27:58;-0.70;99.90
7411;DHT22;3747;48.628;9.058;2023-01-26T00:30:26;-0.80;99.90
7411;DHT22;3747;48.628;9.058;2023-01-26T00:32:52;-0.80;99.90
7411;DHT22;3747;48.628;9.058;2023-01-26T00:35:21;-0.80;99.90
7411;DHT22;3747;48.628;9.058;2023-01-26T00:37:48;-0.80;99.90
7411;DHT22;3747;48.628;9.058;2023-01-26T00:40:15;-0.80;99.90
7411;DHT22;3747;48.628;9.058;2023-01-26T00:42:42;-0.80;99.90
7411;DHT22;3747;48.628;9.058;2023-01-26T00:45:09;-0.80;99.90
7411;DHT22;3747;48.628;9.058;2023-01-26T00:47:37;-0.90;99.90
7411;DHT22;3747;48.628;9.058;2023-01-26T00:50:04;-0.90;99.90
7411;DHT22;3747;48.628;9.058;2023-01-26T00:52:31;-0.90;99.90
7411;DHT22;3747;48.628;9.058;2023-01-26T00:54:57;-0.90;99.90
7411;DHT22;3747;48.628;9.058;2023-01-26T00:57:24;-0.90;99.90
7411;DHT22;3747;48.628;9.058;2023-01-26T00:59:51;-0.80;99.90
7411;DHT22;3747;48.628;9.058;2023-01-26T01:02:17;-0.80;99.90
7411;DHT22;3747;48.628;9.058;2023-01-26T01:04:46;-0.80;99.90
7411;DHT22;3747;48.628;9.058;2023-01-26T01:07:12;-0.80;99.90
7411;DHT22;3747;48.628;9.058;2023-01-26T01:09:39;-0.80;99.90
7411;DHT22;3747;48.628;9.058;2023-01-26T01:12:06;-0.80;99.90
7411;DHT22;3747;48.628;9.058;2023-01-26T01:14:33;-0.90;99.90
7411;DHT22;3747;48.628;9.058;2023-01-26T01:16:59;-0.90;99.90
7411;DHT22;3747;48.628;9.058;2023-01-26T01:19:26;-0.90;99.90
7411;DHT22;3747;48.628;9.058;2023-01-26T01:21:54;-0.90;99.90
7411;DHT22;3747;48.628;9.058;2023-01-26T01:24:21;-1.00;99.90
7411;DHT22;3747;48.628;9.058;2023-01-26T01:26:48;-0.90;99.90
7411;DHT22;3747;48.628;9.058;2023-01-26T01:29:14;-0.90;99.90
7411;DHT22;3747;48.628;9.058;2023-01-26T01:31:41;-0.80;99.90
7411;DHT22;3747;48.628;9.058;2023-01-26T01:34:08;-0.80;99.90
7411;DHT22;3747;48.628;9.058;2023-01-26T01:36:35;-0.70;99.90
7411;DHT22;3747;48.628;9.058;2023-01-26T01:39:03;-0.70;99.90
7411;DHT22;3747;48.628;9.058;2023-01-26T01:41:29;-0.80;99.90
7411;DHT22;3747;48.628;9.058;2023-01-26T01:44:13;-0.80;99.90
7411;DHT22;3747;48.628;9.058;2023-01-26T01:46:46;-0.80;99.90
7411;DHT22;3747;48.628;9.058;2023-01-26T01:49:18;-0.80;99.90
7411;DHT22;3747;48.628;9.058;2023-01-26T01:51:50;-0.90;99.90
7411;DHT22;3747;48.628;9.058;2023-01-26T01:54:25;-0.90;99.90
7411;DHT22;3747;48.628;9.058;2023-01-26T01:56:57;-0.80;99.90
7411;DHT22;3747;48.628;9.058;2023-01-26T01:59:26;-0.70;99.90
7411;DHT22;3747;48.628;9.058;2023-01-26T02:01:54;-0.70;99.90
7411;DHT22;3747;48.628;9.058;2023-01-26T02:04:23;-0.80;99.90
7411;DHT22;3747;48.628;9.058;2023-01-26T02:06:51;-0.70;99.90
7411;DHT22;3747;48.628;9.058;2023-01-26T02:09:21;-0.70;99.90
7411;DHT22;3747;48.628;9.058;2023-01-26T02:12:08;-0.70;99.90
7411;DHT22;3747;48.628;9.058;2023-01-26T02:14:35;-0.80;99.90
7411;DHT22;3747;48.628;9.058;2023-01-26T02:17:02;-0.70;99.90
7411;DHT22;3747;48.628;9.058;2023-01-26T02:19:35;-0.70;99.90
7411;DHT22;3747;48.628;9.058;2023-01-26T02:22:11;-0.80;99.90
7411;DHT22;3747;48.628;9.058;2023-01-26T02:24:43;-0.80;99.90
7411;DHT22;3747;48.628;9.058;2023-01-26T02:27:11;-0.80;99.90
7411;DHT22;3747;48.628;9.058;2023-01-26T02:29:38;-0.80;99.90
7411;DHT22;3747;48.628;9.058;2023-01-26T02:32:06;-0.80;99.90
7411;DHT22;3747;48.628;9.058;2023-01-26T02:34:33;-0.70;99.90
7411;DHT22;3747;48.628;9.058;2023-01-26T02:37:00;-0.60;99.90
7411;DHT22;3747;48.628;9.058;2023-01-26T02:39:37;-0.50;99.90
7411;DHT22;3747;48.628;9.058;2023-01-26T02:42:06;-0.50;99.90
7411;DHT22;3747;48.628;9.058;2023-01-26T02:44:52;-0.60;99.90
7411;DHT22;3747;48.628;9.058;2023-01-26T02:47:18;-0.60;99.90
7411;DHT22;3747;48.628;9.058;2023-01-26T02:49:45;-0.60;99.90
7411;DHT22;3747;48.628;9.058;2023-01-26T02:52:16;-0.60;99.90
7411;DHT22;3747;48.628;9.058;2023-01-26T02:54:43;-0.70;99.90
7411;DHT22;3747;48.628;9.058;2023-01-26T02:57:27;-0.70;99.90
7411;DHT22;3747;48.628;9.058;2023-01-26T02:59:55;-0.70;99.90
7411;DHT22;3747;48.628;9.058;2023-01-26T03:02:22;-0.60;99.90
7411;DHT22;3747;48.628;9.058;2023-01-26T03:04:49;-0.60;99.90
7411;DHT22;3747;48.628;9.058;2023-01-26T03:07:15;-0.60;99.90
7411;DHT22;3747;48.628;9.058;2023-01-26T03:09:42;-0.60;99.90
7411;DHT22;3747;48.628;9.058;2023-01-26T03:12:09;-0.60;99.90
7411;DHT22;3747;48.628;9.058;2023-01-26T03:14:36;-0.60;99.90
7411;DHT22;3747;48.628;9.058;2023-01-26T03:17:04;-0.60;99.90
7411;DHT22;3747;48.628;9.058;2023-01-26T03:19:30;-0.70;99.90
7411;DHT22;3747;48.628;9.058;2023-01-26T03:22:14;-0.70;99.90
7411;DHT22;3747;48.628;9.058;2023-01-26T03:24:58;-0.70;99.90
7411;DHT22;3747;48.628;9.058;2023-01-26T03:27:44;-0.70;99.90
7411;DHT22;3747;48.628;9.058;2023-01-26T03:30:13;-0.70;99.90
7411;DHT22;3747;48.628;9.058;2023-01-26T03:32:42;-0.70;99.90
7411;DHT22;3747;48.628;9.058;2023-01-26T03:35:09;-0.80;99.90
7411;DHT22;3747;48.628;9.058;2023-01-26T03:37:39;-0.80;99.90
7411;DHT22;3747;48.628;9.058;2023-01-26T03:40:09;-0.90;99.90
7411;DHT22;3747;48.628;9.058;2023-01-26T03:42:54;-0.90;99.90
7411;DHT22;3747;48.628;9.058;2023-01-26T03:45:38;-0.80;99.90
7411;DHT22;3747;48.628;9.058;2023-01-26T03:48:23;-0.80;99.90
7411;DHT22;3747;48.628;9.058;2023-01-26T03:51:07;-0.70;99.90
7411;DHT22;3747;48.628;9.058;2023-01-26T03:53:52;-0.80;99.90
7411;DHT22;3747;48.628;9.058;2023-01-26T03:56:36;-0.80;99.90
7411;DHT22;3747;48.628;9.058;2023-01-26T03:59:05;-0.90;99.90
7411;DHT22;3747;48.628;9.058;2023-01-26T04:01:34;-0.90;99.90
7411;DHT22;3747;48.628;9.058;2023-01-26T04:04:03;-0.90;99.90
7411;DHT22;3747;48.628;9.058;2023-01-26T04:06:49;-0.90;99.90
7411;DHT22;3747;48.628;9.058;2023-01-26T04:09:34;-0.80;99.90
7411;DHT22;3747;48.628;9.058;2023-01-26T04:12:02;-0.80;99.90
7411;DHT22;3747;48.628;9.058;2023-01-26T04:14:29;-0.80;99.90
7411;DHT22;3747;48.628;9.058;2023-01-26T04:17:14;-0.70;99.90
7411;DHT22;3747;48.628;9.058;2023-01-26T04:19:59;-0.70;99.90
7411;DHT22;3747;48.628;9.058;2023-01-26T04:22:44;-0.70;99.90
7411;DHT22;3747;48.628;9.058;2023-01-26T04:25:12;-0.60;99.90
7411;DHT22;3747;48.628;9.058;2023-01-26T04:27:40;-0.70;99.90
7411;DHT22;3747;48.628;9.058;2023-01-26T04:30:09;-0.70;99.90
7411;DHT22;3747;48.628;9.058;2023-01-26T04:32:36;-0.80;99.90
7411;DHT22;3747;48.628;9.058;2023-01-26T04:35:06;-0.80;99.90
7411;DHT22;3747;48.628;9.058;2023-01-26T04:37:33;-0.80;99.90
7411;DHT22;3747;48.628;9.058;2023-01-26T04:40:00;-0.80;99.90
7411;DHT22;3747;48.628;9.058;2023-01-26T04:42:28;-0.90;99.90
7411;DHT22;3747;48.628;9.058;2023-01-26T04:44:55;-0.90;99.90
7411;DHT22;3747;48.628;9.058;2023-01-26T04:47:22;-0.90;99.90
7411;DHT22;3747;48.628;9.058;2023-01-26T04:49:48;-0.80;99.90
7411;DHT22;3747;48.628;9.058;2023-01-26T04:52:16;-0.80;99.90
7411;DHT22;3747;48.628;9.058;2023-01-26T04:54:43;-0.90;99.90
7411;DHT22;3747;48.628;9.058;2023-01-26T04:57:10;-0.90;99.90
7411;DHT22;3747;48.628;9.058;2023-01-26T04:59:36;-1.00;99.90
7411;DHT22;3747;48.628;9.058;2023-01-26T05:02:03;-1.00;99.90
7411;DHT22;3747;48.628;9.058;2023-01-26T05:04:30;-1.00;99.90
7411;DHT22;3747;48.628;9.058;2023-01-26T05:06:57;-1.00;99.90
7411;DHT22;3747;48.628;9.058;2023-01-26T05:09:25;-1.00;99.90
7411;DHT22;3747;48.628;9.058;2023-01-26T05:11:52;-1.00;99.90
7411;DHT22;3747;48.628;9.058;2023-01-26T05:14:18;-1.00;99.90
7411;DHT22;3747;48.628;9.058;2023-01-26T05:16:45;-1.10;99.90
7411;DHT22;3747;48.628;9.058;2023-01-26T05:19:12;-1.00;99.90
7411;DHT22;3747;48.628;9.058;2023-01-26T05:21:38;-1.10;99.90
7411;DHT22;3747;48.628;9.058;2023-01-26T05:24:06;-1.10;99.90
7411;DHT22;3747;48.628;9.058;2023-01-26T05:26:35;-1.10;99.90
7411;DHT22;3747;48.628;9.058;2023-01-26T05:29:01;-1.10;99.90
7411;DHT22;3747;48.628;9.058;2023-01-26T05:31:28;-1.20;99.90
7411;DHT22;3747;48.628;9.058;2023-01-26T05:33:55;-1.20;99.90
7411;DHT22;3747;48.628;9.058;2023-01-26T05:36:21;-1.20;99.90
7411;DHT22;3747;48.628;9.058;2023-01-26T05:38:48;-1.30;99.90
7411;DHT22;3747;48.628;9.058;2023-01-26T05:41:15;-1.30;99.90
7411;DHT22;3747;48.628;9.058;2023-01-26T05:43:43;-1.30;99.90
7411;DHT22;3747;48.628;9.058;2023-01-26T05:46:09;-1.30;99.90
7411;DHT22;3747;48.628;9.058;2023-01-26T05:48:36;-1.20;99.90
7411;DHT22;3747;48.628;9.058;2023-01-26T05:51:03;-1.30;99.90
7411;DHT22;3747;48.628;9.058;2023-01-26T05:53:30;-1.30;99.90
7411;DHT22;3747;48.628;9.058;2023-01-26T05:55:56;-1.30;99.90
7411;DHT22;3747;48.628;9.058;2023-01-26T05:58:23;-1.40;99.90
7411;DHT22;3747;48.628;9.058;2023-01-26T06:00:51;-1.40;99.90
7411;DHT22;3747;48.628;9.058;2023-01-26T06:03:18;-1.40;99.90
7411;DHT22;3747;48.628;9.058;2023-01-26T06:05:51;-1.40;99.90
7411;DHT22;3747;48.628;9.058;2023-01-26T06:08:19;-1.40;99.90
7411;DHT22;3747;48.628;9.058;2023-01-26T06:10:45;-1.40;99.90
7411;DHT22;3747;48.628;9.058;2023-01-26T06:13:12;-1.40;99.90
7411;DHT22;3747;48.628;9.058;2023-01-26T06:15:39;-1.40;99.90
7411;DHT22;3747;48.628;9.058;2023-01-26T06:18:07;-1.40;99.90
7411;DHT22;3747;48.628;9.058;2023-01-26T06:20:33;-1.40;99.90
7411;DHT22;3747;48.628;9.058;2023-01-26T06:23:00;-1.40;99.90
7411;DHT22;3747;48.628;9.058;2023-01-26T06:25:27;-1.40;99.90
7411;DHT22;3747;48.628;9.058;2023-01-26T06:27:56;-1.40;99.90
7411;DHT22;3747;48.628;9.058;2023-01-26T06:30:23;-1.50;99.90
7411;DHT22;3747;48.628;9.058;2023-01-26T06:32:49;-1.50;99.90
7411;DHT22;3747;48.628;9.058;2023-01-26T06:35:17;-1.50;99.90
7411;DHT22;3747;48.628;9.058;2023-01-26T06:37:47;-1.50;99.90
7411;DHT22;3747;48.628;9.058;2023-01-26T06:40:14;-1.50;99.90
7411;DHT22;3747;48.628;9.058;2023-01-26T06:42:46;-1.50;99.90
7411;DHT22;3747;48.628;9.058;2023-01-26T06:45:13;-1.50;99.90
7411;DHT22;3747;48.628;9.058;2023-01-26T06:47:44;-1.40;99.90
7411;DHT22;3747;48.628;9.058;2023-01-26T06:50:11;-1.40;99.90
7411;DHT22;3747;48.628;9.058;2023-01-26T06:52:40;-1.40;99.90
7411;DHT22;3747;48.628;9.058;2023-01-26T06:55:15;-1.40;99.90
7411;DHT22;3747;48.628;9.058;2023-01-26T06:57:42;-1.40;99.90
7411;DHT22;3747;48.628;9.058;2023-01-26T07:00:11;-1.40;99.90
7411;DHT22;3747;48.628;9.058;2023-01-26T07:02:37;-1.40;99.90
7411;DHT22;3747;48.628;9.058;2023-01-26T07:05:05;-1.40;99.90
7411;DHT22;3747;48.628;9.058;2023-01-26T07:07:32;-1.40;99.90
7411;DHT22;3747;48.628;9.058;2023-01-26T07:10:00;-1.40;99.90
7411;DHT22;3747;48.628;9.058;2023-01-26T07:12:36;-1.40;99.90
7411;DHT22;3747;48.628;9.058;2023-01-26T07:15:04;-1.40;99.90
7411;DHT22;3747;48.628;9.058;2023-01-26T07:17:31;-1.30;99.90
7411;DHT22;3747;48.628;9.058;2023-01-26T07:19:57;-1.30;99.90
7411;DHT22;3747;48.628;9.058;2023-01-26T07:22:24;-1.30;99.90
7411;DHT22;3747;48.628;9.058;2023-01-26T07:24:50;-1.30;99.90
7411;DHT22;3747;48.628;9.058;2023-01-26T07:27:18;-1.40;99.90
7411;DHT22;3747;48.628;9.058;2023-01-26T07:29:45;-1.40;99.90
7411;DHT22;3747;48.628;9.058;2023-01-26T07:32:12;-1.50;99.90
7411;DHT22;3747;48.628;9.058;2023-01-26T07:34:39;-1.50;99.90
7411;DHT22;3747;48.628;9.058;2023-01-26T07:37:05;-1.50;99.90
7411;DHT22;3747;48.628;9.058;2023-01-26T07:39:32;-1.50;99.90
7411;DHT22;3747;48.628;9.058;2023-01-26T07:41:59;-1.50;99.90
7411;DHT22;3747;48.628;9.058;2023-01-26T07:44:27;-1.40;99.90
7411;DHT22;3747;48.628;9.058;2023-01-26T07:46:53;-1.40;99.90
7411;DHT22;3747;48.628;9.058;2023-01-26T07:49:20;-1.40;99.90
7411;DHT22;3747;48.628;9.058;2023-01-26T07:51:47;-1.40;99.90
7411;DHT22;3747;48.628;9.058;2023-01-26T07:54:13;-1.40;99.90
7411;DHT22;3747;48.628;9.058;2023-01-26T07:56:40;-1.40;99.90
7411;DHT22;3747;48.628;9.058;2023-01-26T07:59:09;-1.40;99.90
7411;DHT22;3747;48.628;9.058;2023-01-26T08:01:37;-1.40;99.90
7411;DHT22;3747;48.628;9.058;2023-01-26T08:04:04;-1.40;99.90
7411;DHT22;3747;48.628;9.058;2023-01-26T08:06:31;-1.40;99.90
7411;DHT22;3747;48.628;9.058;2023-01-26T08:08:58;-1.40;99.90
7411;DHT22;3747;48.628;9.058;2023-01-26T08:11:25;-1.50;99.90
7411;DHT22;3747;48.628;9.058;2023-01-26T08:13:51;-1.50;99.90
7411;DHT22;3747;48.628;9.058;2023-01-26T08:16:18;-1.50;99.90
7411;DHT22;3747;48.628;9.058;2023-01-26T08:18:46;-1.50;99.90
7411;DHT22;3747;48.628;9.058;2023-01-26T08:21:15;-1.50;99.90
7411;DHT22;3747;48.628;9.058;2023-01-26T08:23:42;-1.40;99.90
7411;DHT22;3747;48.628;9.058;2023-01-26T08:26:10;-1.40;99.90
7411;DHT22;3747;48.628;9.058;2023-01-26T08:28:37;-1.40;99.90
7411;DHT22;3747;48.628;9.058;2023-01-26T08:31:06;-1.40;99.90
7411;DHT22;3747;48.628;9.058;2023-01-26T08:33:33;-1.40;99.90
7411;DHT22;3747;48.628;9.058;2023-01-26T08:36:02;-1.30;99.90
7411;DHT22;3747;48.628;9.058;2023-01-26T08:38:29;-1.40;99.90
7411;DHT22;3747;48.628;9.058;2023-01-26T08:40:56;-1.30;99.90
7411;DHT22;3747;48.628;9.058;2023-01-26T08:43:23;-1.30;99.90
7411;DHT22;3747;48.628;9.058;2023-01-26T08:45:50;-1.40;99.90
7411;DHT22;3747;48.628;9.058;2023-01-26T08:48:16;-1.40;99.90
7411;DHT22;3747;48.628;9.058;2023-01-26T08:50:43;-1.40;99.90
7411;DHT22;3747;48.628;9.058;2023-01-26T08:53:12;-1.30;99.90
7411;DHT22;3747;48.628;9.058;2023-01-26T08:55:38;-1.30;99.90
7411;DHT22;3747;48.628;9.058;2023-01-26T08:58:05;-1.30;99.90
7411;DHT22;3747;48.628;9.058;2023-01-26T09:00:32;-1.20;99.90
7411;DHT22;3747;48.628;9.058;2023-01-26T09:02:59;-1.20;99.90
7411;DHT22;3747;48.628;9.058;2023-01-26T09:05:29;-1.30;99.90
7411;DHT22;3747;48.628;9.058;2023-01-26T09:07:56;-1.30;99.90
7411;DHT22;3747;48.628;9.058;2023-01-26T09:10:24;-1.30;99.90
7411;DHT22;3747;48.628;9.058;2023-01-26T09:12:59;-1.20;99.90
7411;DHT22;3747;48.628;9.058;2023-01-26T09:15:26;-1.20;99.90
7411;DHT22;3747;48.628;9.058;2023-01-26T09:17:53;-1.20;99.90
7411;DHT22;3747;48.628;9.058;2023-01-26T09:20:20;-1.20;99.90
7411;DHT22;3747;48.628;9.058;2023-01-26T09:22:46;-1.30;99.90
7411;DHT22;3747;48.628;9.058;2023-01-26T09:25:13;-1.30;99.90
7411;DHT22;3747;48.628;9.058;2023-01-26T09:27:42;-1.30;99.90
7411;DHT22;3747;48.628;9.058;2023-01-26T09:30:10;-1.30;99.90
7411;DHT22;3747;48.628;9.058;2023-01-26T09:32:37;-1.30;99.90
7411;DHT22;3747;48.628;9.058;2023-01-26T09:35:04;-1.30;99.90
7411;DHT22;3747;48.628;9.058;2023-01-26T09:37:36;-1.40;99.90
7411;DHT22;3747;48.628;9.058;2023-01-26T09:40:03;-1.50;99.90
7411;DHT22;3747;48.628;9.058;2023-01-26T09:42:53;-1.50;99.90
7411;DHT22;3747;48.628;9.058;2023-01-26T09:45:26;-1.50;99.90
7411;DHT22;3747;48.628;9.058;2023-01-26T09:50:49;-1.50;99.90
7411;DHT22;3747;48.628;9.058;2023-01-26T09:53:19;-1.50;99.90
7411;DHT22;3747;48.628;9.058;2023-01-26T09:55:50;-1.40;99.90
7411;DHT22;3747;48.628;9.058;2023-01-26T09:58:24;-1.50;99.90
7411;DHT22;3747;48.628;9.058;2023-01-26T10:00:57;-1.50;99.90
7411;DHT22;3747;48.628;9.058;2023-01-26T10:03:29;-1.50;99.90
7411;DHT22;3747;48.628;9.058;2023-01-26T10:06:05;-1.50;99.90
7411;DHT22;3747;48.628;9.058;2023-01-26T10:08:38;-1.60;99.90
7411;DHT22;3747;48.628;9.058;2023-01-26T10:11:15;-1.60;99.90
7411;DHT22;3747;48.628;9.058;2023-01-26T10:13:49;-1.60;99.90
7411;DHT22;3747;48.628;9.058;2023-01-26T10:16:16;-1.60;99.90
7411;DHT22;3747;48.628;9.058;2023-01-26T10:18:49;-1.60;99.90
7411;DHT22;3747;48.628;9.058;2023-01-26T10:21:20;-1.60;99.90
7411;DHT22;3747;48.628;9.058;2023-01-26T10:23:48;-1.70;99.90
7411;DHT22;3747;48.628;9.058;2023-01-26T10:26:18;-1.80;99.90
7411;DHT22;3747;48.628;9.058;2023-01-26T10:28:52;-1.70;99.90
7411;DHT22;3747;48.628;9.058;2023-01-26T10:31:21;-1.70;99.90
7411;DHT22;3747;48.628;9.058;2023-01-26T10:33:51;-1.70;99.90
7411;DHT22;3747;48.628;9.058;2023-01-26T10:36:18;-1.70;99.90
7411;DHT22;3747;48.628;9.058;2023-01-26T10:38:46;-1.60;99.90
7411;DHT22;3747;48.628;9.058;2023-01-26T10:41:22;-1.60;99.90
7411;DHT22;3747;48.628;9.058;2023-01-26T10:43:52;-1.60;99.90
7411;DHT22;3747;48.628;9.058;2023-01-26T10:46:25;-1.60;99.90
7411;DHT22;3747;48.628;9.058;2023-01-26T10:48:53;-1.60;99.90
7411;DHT22;3747;48.628;9.058;2023-01-26T10:51:24;-1.60;99.90
7411;DHT22;3747;48.628;9.058;2023-01-26T10:54:19;-1.60;99.90
7411;DHT22;3747;48.628;9.058;2023-01-26T10:56:49;-1.60;99.90
7411;DHT22;3747;48.628;9.058;2023-01-26T10:59:25;-1.70;99.90
7411;DHT22;3747;48.628;9.058;2023-01-26T11:01:54;-1.70;99.90
7411;DHT22;3747;48.628;9.058;2023-01-26T11:04:21;-1.80;99.90
7411;DHT22;3747;48.628;9.058;2023-01-26T11:06:48;-1.70;99.90
7411;DHT22;3747;48.628;9.058;2023-01-26T11:09:20;-1.70;99.90
7411;DHT22;3747;48.628;9.058;2023-01-26T11:11:57;-1.70;99.90
7411;DHT22;3747;48.628;9.058;2023-01-26T11:14:27;-1.70;99.90
7411;DHT22;3747;48.628;9.058;2023-01-26T11:16:58;-1.70;99.90
7411;DHT22;3747;48.628;9.058;2023-01-26T11:22:33;-1.70;99.90
7411;DHT22;3747;48.628;9.058;2023-01-26T11:25:10;-1.70;99.90
7411;DHT22;3747;48.628;9.058;2023-01-26T11:27:45;-1.70;99.90
7411;DHT22;3747;48.628;9.058;2023-01-26T11:30:39;-1.80;99.90
7411;DHT22;3747;48.628;9.058;2023-01-26T11:33:15;-1.80;99.90
7411;DHT22;3747;48.628;9.058;2023-01-26T11:35:51;-1.80;99.90
7411;DHT22;3747;48.628;9.058;2023-01-26T11:38:27;-1.80;99.90
7411;DHT22;3747;48.628;9.058;2023-01-26T11:41:01;-1.80;99.90
7411;DHT22;3747;48.628;9.058;2023-01-26T11:44:02;-1.90;99.90
7411;DHT22;3747;48.628;9.058;2023-01-26T11:46:46;-1.90;99.90
7411;DHT22;3747;48.628;9.058;2023-01-26T11:49:27;-1.90;99.90
7411;DHT22;3747;48.628;9.058;2023-01-26T11:52:03;-1.90;99.90
7411;DHT22;3747;48.628;9.058;2023-01-26T11:54:40;-2.00;99.90
7411;DHT22;3747;48.628;9.058;2023-01-26T11:57:17;-2.00;99.90
7411;DHT22;3747;48.628;9.058;2023-01-26T11:59:50;-2.00;99.90
7411;DHT22;3747;48.628;9.058;2023-01-26T12:02:30;-2.00;99.90
7411;DHT22;3747;48.628;9.058;2023-01-26T12:05:01;-2.00;99.90
7411;DHT22;3747;48.628;9.058;2023-01-26T12:07:35;-2.00;99.90
7411;DHT22;3747;48.628;9.058;2023-01-26T12:10:16;-1.90;99.90
7411;DHT22;3747;48.628;9.058;2023-01-26T12:12:47;-1.90;99.90
7411;DHT22;3747;48.628;9.058;2023-01-26T12:15:16;-1.90;99.90
7411;DHT22;3747;48.628;9.058;2023-01-26T12:17:52;-1.90;99.90
7411;DHT22;3747;48.628;9.058;2023-01-26T12:20:28;-1.90;99.90
7411;DHT22;3747;48.628;9.058;2023-01-26T12:23:01;-2.00;99.90
7411;DHT22;3747;48.628;9.058;2023-01-26T12:25:32;-1.90;99.90
7411;DHT22;3747;48.628;9.058;2023-01-26T12:28:06;-2.00;99.90
7411;DHT22;3747;48.628;9.058;2023-01-26T12:30:45;-2.00;99.90
7411;DHT22;3747;48.628;9.058;2023-01-26T12:33:15;-1.90;99.90
7411;DHT22;3747;48.628;9.058;2023-01-26T12:39:07;-2.00;99.90
7411;DHT22;3747;48.628;9.058;2023-01-26T12:41:45;-1.80;99.90
7411;DHT22;3747;48.628;9.058;2023-01-26T12:44:25;-1.70;99.90
7411;DHT22;3747;48.628;9.058;2023-01-26T12:46:56;-1.50;99.90
7411;DHT22;3747;48.628;9.058;2023-01-26T12:49:30;-1.50;99.90
7411;DHT22;3747;48.628;9.058;2023-01-26T12:52:03;-1.60;99.90
7411;DHT22;3747;48.628;9.058;2023-01-26T12:54:36;-1.70;99.90
7411;DHT22;3747;48.628;9.058;2023-01-26T12:57:12;-1.80;99.90
7411;DHT22;3747;48.628;9.058;2023-01-26T12:59:40;-1.80;99.90
7411;DHT22;3747;48.628;9.058;2023-01-26T13:02:21;-1.90;99.90
7411;DHT22;3747;48.628;9.058;2023-01-26T13:04:51;-1.80;99.90
7411;DHT22;3747;48.628;9.058;2023-01-26T13:07:30;-1.90;99.90
7411;DHT22;3747;48.628;9.058;2023-01-26T13:10:23;-1.90;99.90
7411;DHT22;3747;48.628;9.058;2023-01-26T13:12:53;-1.90;99.90
7411;DHT22;3747;48.628;9.058;2023-01-26T13:15:21;-1.90;99.90
7411;DHT22;3747;48.628;9.058;2023-01-26T13:17:56;-1.90;99.90
7411;DHT22;3747;48.628;9.058;2023-01-26T13:29:28;-1.90;99.90
7411;DHT22;3747;48.628;9.058;2023-01-26T13:31:57;-1.90;99.90
7411;DHT22;3747;48.628;9.058;2023-01-26T13:34:27;-1.90;99.90
7411;DHT22;3747;48.628;9.058;2023-01-26T13:36:57;-1.90;99.90
7411;DHT22;3747;48.628;9.058;2023-01-26T13:39:29;-1.90;99.90
7411;DHT22;3747;48.628;9.058;2023-01-26T13:41:58;-1.80;99.90
7411;DHT22;3747;48.628;9.058;2023-01-26T13:44:29;-1.80;99.90
7411;DHT22;3747;48.628;9.058;2023-01-26T13:47:03;-1.80;99.90
7411;DHT22;3747;48.628;9.058;2023-01-26T13:49:37;-1.80;99.90
7411;DHT22;3747;48.628;9.058;2023-01-26T13:52:16;-1.90;99.90
7411;DHT22;3747;48.628;9.058;2023-01-26T13:54:43;-1.90;99.90
7411;DHT22;3747;48.628;9.058;2023-01-26T13:57:19;-1.90;99.90
7411;DHT22;3747;48.628;9.058;2023-01-26T13:59:49;-1.90;99.90
7411;DHT22;3747;48.628;9.058;2023-01-26T14:02:25;-1.90;99.90
7411;DHT22;3747;48.628;9.058;2023-01-26T14:04:53;-1.90;99.90
7411;DHT22;3747;48.628;9.058;2023-01-26T14:07:23;-1.90;99.90
7411;DHT22;3747;48.628;9.058;2023-01-26T14:09:52;-1.90;99.90
7411;DHT22;3747;48.628;9.058;2023-01-26T14:12:23;-1.80;99.90
7411;DHT22;3747;48.628;9.058;2023-01-26T14:14:52;-1.70;99.90
7411;DHT22;3747;48.628;9.058;2023-01-26T14:17:27;-1.80;99.90
7411;DHT22;3747;48.628;9.058;2023-01-26T14:19:54;-1.80;99.90
7411;DHT22;3747;48.628;9.058;2023-01-26T14:22:21;-1.90;99.90
7411;DHT22;3747;48.628;9.058;2023-01-26T14:24:49;-1.90;99.90
7411;DHT22;3747;48.628;9.058;2023-01-26T14:27:34;-1.90;99.90
7411;DHT22;3747;48.628;9.058;2023-01-26T14:30:02;-1.80;99.90
7411;DHT22;3747;48.628;9.058;2023-01-26T14:32:33;-2.00;99.90
7411;DHT22;3747;48.628;9.058;2023-01-26T14:35:00;-2.00;99.90
7411;DHT22;3747;48.628;9.058;2023-01-26T14:37:27;-2.00;99.90
7411;DHT22;3747;48.628;9.058;2023-01-26T14:40:18;-2.00;99.90
7411;DHT22;3747;48.628;9.058;2023-01-26T14:42:47;-2.00;99.90
7411;DHT22;3747;48.628;9.058;2023-01-26T14:45:15;-2.10;99.90
7411;DHT22;3747;48.628;9.058;2023-01-26T14:47:42;-2.00;99.90
7411;DHT22;3747;48.628;9.058;2023-01-26T14:50:22;-2.00;99.90
7411;DHT22;3747;48.628;9.058;2023-01-26T14:52:51;-2.00;99.90
7411;DHT22;3747;48.628;9.058;2023-01-26T14:55:23;-2.00;99.90
7411;DHT22;3747;48.628;9.058;2023-01-26T14:57:52;-2.00;99.90
7411;DHT22;3747;48.628;9.058;2023-01-26T15:00:25;-2.00;99.90
7411;DHT22;3747;48.628;9.058;2023-01-26T15:02:54;-2.10;99.90
7411;DHT22;3747;48.628;9.058;2023-01-26T15:05:23;-2.10;99.90
7411;DHT22;3747;48.628;9.058;2023-01-26T15:07:57;-2.10;99.90
7411;DHT22;3747;48.628;9.058;2023-01-26T15:10:31;-2.10;99.90
7411;DHT22;3747;48.628;9.058;2023-01-26T15:13:02;-2.10;99.90
7411;DHT22;3747;48.628;9.058;2023-01-26T15:15:31;-2.10;99.90
7411;DHT22;3747;48.628;9.058;2023-01-26T15:18:00;-2.10;99.90
7411;DHT22;3747;48.628;9.058;2023-01-26T15:20:40;-2.20;99.90
7411;DHT22;3747;48.628;9.058;2023-01-26T15:23:22;-2.20;99.90
7411;DHT22;3747;48.628;9.058;2023-01-26T15:25:49;-2.10;99.90
7411;DHT22;3747;48.628;9.058;2023-01-26T15:28:19;-2.20;99.90
7411;DHT22;3747;48.628;9.058;2023-01-26T15:30:49;-2.20;99.90
7411;DHT22;3747;48.628;9.058;2023-01-26T15:33:36;-2.20;99.90
7411;DHT22;3747;48.628;9.058;2023-01-26T15:36:03;-2.20;99.90
7411;DHT22;3747;48.628;9.058;2023-01-26T15:38:30;-2.10;99.90
7411;DHT22;3747;48.628;9.058;2023-01-26T15:40:56;-2.10;99.90
7411;DHT22;3747;48.628;9.058;2023-01-26T15:43:24;-2.30;99.90
7411;DHT22;3747;48.628;9.058;2023-01-26T15:45:53;-2.30;99.90
7411;DHT22;3747;48.628;9.058;2023-01-26T15:48:22;-2.30;99.90
7411;DHT22;3747;48.628;9.058;2023-01-26T15:50:50;-2.30;99.90
7411;DHT22;3747;48.628;9.058;2023-01-26T15:53:19;-2.20;99.90
7411;DHT22;3747;48.628;9.058;2023-01-26T15:55:50;-2.20;99.90
7411;DHT22;3747;48.628;9.058;2023-01-26T15:58:19;-2.20;99.90
7411;DHT22;3747;48.628;9.058;2023-01-26T16:00:48;-2.20;99.90
7411;DHT22;3747;48.628;9.058;2023-01-26T16:03:17;-2.20;99.90
7411;DHT22;3747;48.628;9.058;2023-01-26T16:05:44;-2.30;99.90
7411;DHT22;3747;48.628;9.058;2023-01-26T16:08:12;-2.30;99.90
7411;DHT22;3747;48.628;9.058;2023-01-26T16:10:40;-2.30;99.90
7411;DHT22;3747;48.628;9.058;2023-01-26T16:13:08;-2.20;99.90
7411;DHT22;3747;48.628;9.058;2023-01-26T16:15:39;-2.20;99.90
7411;DHT22;3747;48.628;9.058;2023-01-26T16:18:08;-2.20;99.90
7411;DHT22;3747;48.628;9.058;2023-01-26T16:20:37;-2.30;99.90
7411;DHT22;3747;48.628;9.058;2023-01-26T16:23:07;-2.20;99.90
7411;DHT22;3747;48.628;9.058;2023-01-26T16:25:37;-2.20;99.90
7411;DHT22;3747;48.628;9.058;2023-01-26T16:28:04;-2.20;99.90
7411;DHT22;3747;48.628;9.058;2023-01-26T16:30:31;-2.20;99.90
7411;DHT22;3747;48.628;9.058;2023-01-26T16:32:57;-2.20;99.90
7411;DHT22;3747;48.628;9.058;2023-01-26T16:35:25;-2.20;99.90
7411;DHT22;3747;48.628;9.058;2023-01-26T16:37:53;-2.20;99.90
7411;DHT22;3747;48.628;9.058;2023-01-26T16:40:20;-2.20;99.90